Time;durP1;ratioP1;P1;durP2;ratioP2;P2;SDS_P1;SDS_P2;PMS_P1;PMS_P2;Temp;Humidity;BMP_temperature;BMP_pressure;BME280_temperature;BME280_humidity;BME280_pressure;Samples;Min_cycle;Max_cycle;Signal;HPM_P1;HPM_P2
2022/09/02 14:41:24;;;;;;;15.95;11.75;;;24.80;21.50;;;;;;5648774;25;20479;-92
2022/09/02 14:44:09;;;;;;;15.32;11.32;;;24.70;21.60;;;;;;5631393;25;20106;-92
2022/09/02 14:46:36;;;;;;;16.77;11.18;;;24.70;21.70;;;;;;5652773;25;20470;-94
2022/09/02 14:49:25;;;;;;;18.42;11.02;;;24.60;21.90;;;;;;5641097;25;20066;-93
2022/09/02 14:55:55;;;;;;;13.63;10.25;;;24.50;22.20;;;;;;5643168;25;20067;-94
2022/09/02 14:58:44;;;;;;;13.38;10.75;;;24.40;22.10;;;;;;5559264;25;20056;-95
2022/09/02 15:01:31;;;;;;;12.80;9.98;;;24.40;22.40;;;;;;5592402;25;20064;-94
2022/09/02 15:04:21;;;;;;;13.98;10.63;;;24.30;22.30;;;;;;5593381;25;20091;-95
2022/09/02 15:07:09;;;;;;;13.45;10.30;;;24.30;22.60;;;;;;5552926;25;20056;-95
2022/09/02 15:09:51;;;;;;;12.75;9.60;;;24.20;22.50;;;;;;5595015;25;20104;-94
2022/09/02 15:13:16;;;;;;;12.10;9.05;;;24.20;22.80;;;;;;5551081;25;20048;-94
2022/09/02 15:17:12;;;;;;;11.50;8.70;;;24.10;22.70;;;;;;5559233;25;20112;-94
2022/09/02 15:19:55;;;;;;;11.75;8.73;;;24.00;22.80;;;;;;5498843;25;20061;-95
2022/09/02 15:22:45;;;;;;;11.32;8.60;;;24.00;22.90;;;;;;5482728;26;20069;-92
2022/09/02 15:29:38;;;;;;;12.40;8.50;;;23.80;23.10;;;;;;5558228;25;20100;-94
2022/09/02 15:36:18;;;;;;;11.68;7.30;;;23.60;23.40;;;;;;5555868;25;20071;-93
2022/09/02 15:38:45;;;;;;;8.27;6.85;;;23.60;23.50;;;;;;5514645;25;20071;-96
2022/09/02 15:41:33;;;;;;;12.20;7.55;;;23.50;23.70;;;;;;5517642;25;20061;-95
2022/09/02 15:44:24;;;;;;;10.88;7.07;;;23.40;23.80;;;;;;5514802;25;20060;-93
2022/09/02 15:46:57;;;;;;;8.90;6.97;;;23.40;24.20;;;;;;5533904;25;20072;-93
2022/09/02 15:49:26;;;;;;;7.55;6.47;;;23.40;24.40;;;;;;5559872;25;20116;-93
2022/09/02 15:52:01;;;;;;;12.48;6.80;;;23.30;24.20;;;;;;5582945;25;20063;-94
2022/09/02 15:59:19;;;;;;;9.77;6.20;;;23.20;25.30;;;;;;5693263;25;20097;-94
2022/09/02 16:01:48;;;;;;;6.67;5.20;;;23.20;24.40;;;;;;5650780;25;20117;-93
2022/09/02 16:04:21;;;;;;;5.60;4.97;;;23.10;24.60;;;;;;5644746;25;20254;-94
2022/09/02 16:06:58;;;;;;;8.18;5.13;;;23.10;24.60;;;;;;5638620;25;20047;-93
2022/09/02 16:09:25;;;;;;;7.20;5.65;;;23.00;24.70;;;;;;5634599;25;20101;-94
2022/09/02 16:11:58;;;;;;;6.07;4.63;;;23.00;25.10;;;;;;5636898;25;20065;-94
2022/09/02 17:01:11;;;;;;;9.27;3.30;;;22.10;27.40;;;;;;5708557;25;20106;-95
2022/09/02 17:03:39;;;;;;;8.82;3.55;;;22.10;27.40;;;;;;5631243;25;20077;-93
2022/09/02 17:06:06;;;;;;;6.07;3.00;;;22.10;27.50;;;;;;5715612;25;20066;-95
2022/09/02 17:08:33;;;;;;;6.50;2.78;;;22.10;27.30;;;;;;5671906;25;20062;-92
2022/09/02 17:11:28;;;;;;;6.25;3.13;;;22.10;27.30;;;;;;5677699;25;20053;-88
2022/09/02 17:14:01;;;;;;;8.63;3.42;;;22.00;27.90;;;;;;5699714;25;20068;-91
2022/09/02 17:16:31;;;;;;;6.32;3.65;;;22.00;27.90;;;;;;5659169;25;20108;-92
2022/09/02 17:18:58;;;;;;;7.45;2.33;;;22.00;27.90;;;;;;5685202;25;20174;-93
2022/09/02 17:21:25;;;;;;;;;;;21.90;27.90;;;;;;5685017;25;20062;-93
2022/09/02 17:23:53;;;;;;;6.95;2.40;;;21.90;27.80;;;;;;5714340;25;19983;-95
2022/09/02 17:26:21;;;;;;;5.03;2.88;;;21.90;27.60;;;;;;5672395;25;20057;-93
2022/09/02 17:28:53;;;;;;;9.95;2.60;;;21.90;27.80;;;;;;5715153;25;20065;-94
2022/09/02 17:31:26;;;;;;;5.85;2.50;;;21.90;27.80;;;;;;5693010;25;20046;-95
2022/09/02 17:33:54;;;;;;;8.27;2.97;;;21.80;28.20;;;;;;5690862;25;20107;-93
2022/09/02 17:36:24;;;;;;;9.73;3.53;;;21.80;28.40;;;;;;5691830;25;20061;-92
2022/09/02 17:39:04;;;;;;;6.38;3.00;;;21.70;28.60;;;;;;5734680;25;20054;-95
2022/09/02 17:44:34;;;;;;;8.00;3.47;;;21.70;28.70;;;;;;5728692;25;20065;-93
2022/09/02 17:47:10;;;;;;;10.50;3.13;;;21.60;28.80;;;;;;5727698;24;20088;-92
2022/09/02 17:49:40;;;;;;;6.28;2.35;;;21.60;28.70;;;;;;5702553;24;20046;-95
2022/09/02 17:52:06;;;;;;;4.72;2.20;;;21.60;28.70;;;;;;5650772;25;20058;-93
2022/09/02 17:54:37;;;;;;;5.82;2.13;;;21.50;29.00;;;;;;5653882;25;20050;-93
2022/09/02 17:57:32;;;;;;;6.07;1.85;;;21.60;29.40;;;;;;5669187;25;20114;-91
2022/09/02 18:00:11;;;;;;;4.13;2.13;;;21.50;29.20;;;;;;5666521;25;20102;-91
2022/09/02 18:02:52;;;;;;;5.95;2.53;;;21.50;29.00;;;;;;5659362;25;20065;-90
2022/09/02 18:05:24;;;;;;;5.15;1.83;;;21.50;29.20;;;;;;5682028;25;20062;-91
2022/09/02 18:08:24;;;;;;;7.00;2.40;;;21.50;29.20;;;;;;5656976;25;20059;-89
2022/09/02 18:10:55;;;;;;;4.60;2.00;;;21.40;29.00;;;;;;5655374;25;20387;-90
2022/09/02 18:13:33;;;;;;;3.58;2.00;;;21.40;29.40;;;;;;5667415;25;20050;-92
2022/09/02 18:16:24;;;;;;;7.78;2.22;;;21.30;29.70;;;;;;5675374;25;20132;-92
2022/09/02 18:18:56;;;;;;;5.38;2.10;;;21.20;29.60;;;;;;5669385;25;20055;-91
2022/09/02 18:21:42;;;;;;;5.35;2.45;;;21.20;29.60;;;;;;5684718;25;20058;-94
2022/09/02 18:24:20;;;;;;;;;;;21.10;30.00;;;;;;5656404;25;20456;-91
2022/09/02 18:27:13;;;;;;;4.43;2.20;;;21.10;30.00;;;;;;5650294;25;19968;-93
2022/09/02 18:29:52;;;;;;;6.70;2.42;;;21.10;30.00;;;;;;5636217;25;20058;-92
2022/09/02 18:32:57;;;;;;;3.58;2.17;;;21.00;30.00;;;;;;5652989;25;20057;-92
2022/09/02 18:36:09;;;;;;;5.50;2.55;;;20.90;29.90;;;;;;5653156;25;20043;-95
2022/09/02 18:42:47;;;;;;;5.35;1.80;;;20.70;30.30;;;;;;5675784;25;20473;-93
2022/09/02 18:45:44;;;;;;;3.60;1.80;;;20.70;30.60;;;;;;5676541;25;20046;-94
2022/09/02 18:48:34;;;;;;;4.18;1.88;;;20.60;30.80;;;;;;5654303;25;20070;-92
2022/09/02 18:51:23;;;;;;;5.55;1.77;;;20.50;30.50;;;;;;5669741;25;20054;-92
2022/09/02 18:53:53;;;;;;;3.30;1.67;;;20.50;30.90;;;;;;5662400;25;20054;-94
2022/09/02 18:56:24;;;;;;;7.03;2.00;;;20.50;30.80;;;;;;5661524;25;20464;-95
2022/09/02 18:59:01;;;;;;;5.43;1.88;;;20.40;30.70;;;;;;5637116;25;20124;-94
2022/09/02 19:01:29;;;;;;;3.65;1.50;;;20.40;30.70;;;;;;5659563;25;20050;-92
2022/09/02 19:03:59;;;;;;;4.72;1.58;;;20.40;30.70;;;;;;5635961;25;20064;-92
2022/09/02 19:06:29;;;;;;;5.72;2.33;;;20.30;31.20;;;;;;5660742;25;20065;-93
2022/09/02 19:09:02;;;;;;;3.83;1.85;;;20.30;31.40;;;;;;5618181;25;20058;-96
2022/09/02 19:11:28;;;;;;;6.72;1.95;;;20.20;31.80;;;;;;5638376;25;20097;-92
2022/09/02 19:14:07;;;;;;;;;;;20.20;32.00;;;;;;5660668;25;20050;-93
2022/09/02 19:16:35;;;;;;;8.73;2.00;;;20.20;32.10;;;;;;5681847;25;19960;-91
2022/09/02 19:19:03;;;;;;;7.57;2.30;;;20.10;31.80;;;;;;5634730;25;20050;-91
2022/09/02 19:21:35;;;;;;;3.42;2.42;;;20.10;32.30;;;;;;5654674;25;20078;-92
2022/09/02 19:24:03;;;;;;;6.28;2.30;;;20.10;33.60;;;;;;5636739;25;20047;-93
2022/09/02 19:26:30;;;;;;;7.43;2.38;;;20.00;32.10;;;;;;5628444;25;20058;-92
2022/09/02 19:28:57;;;;;;;6.93;1.77;;;20.00;32.10;;;;;;5649976;25;20054;-93
2022/09/02 19:31:25;;;;;;;;;;;19.90;32.30;;;;;;5621671;25;20097;-94
2022/09/02 19:33:53;;;;;;;4.90;2.00;;;19.90;32.30;;;;;;5681416;25;19949;-93
2022/09/02 19:36:20;;;;;;;3.33;2.00;;;19.90;32.50;;;;;;5677790;25;20065;-90
2022/09/02 19:38:47;;;;;;;8.25;1.80;;;19.80;32.80;;;;;;5641522;25;20055;-92
2022/09/02 19:41:16;;;;;;;5.95;1.70;;;19.80;33.10;;;;;;5695564;25;20126;-93
2022/09/02 19:43:43;;;;;;;5.18;1.67;;;19.80;33.30;;;;;;5654975;25;20088;-93
2022/09/02 19:46:11;;;;;;;6.72;2.17;;;19.70;33.20;;;;;;5676541;25;20058;-93
2022/09/02 19:48:39;;;;;;;4.68;1.77;;;19.70;33.20;;;;;;5697719;25;20054;-93
2022/09/02 19:51:08;;;;;;;4.15;1.35;;;19.70;33.10;;;;;;5691811;25;20062;-93
2022/09/02 19:53:37;;;;;;;5.53;1.50;;;19.70;33.40;;;;;;5667908;25;20059;-92
2022/09/02 19:56:05;;;;;;;4.63;1.52;;;19.60;33.80;;;;;;5642687;25;20054;-95
2022/09/02 19:58:36;;;;;;;4.55;1.60;;;19.60;33.80;;;;;;5665185;25;20486;-94
2022/09/02 20:01:09;;;;;;;3.78;1.77;;;19.60;34.00;;;;;;5693434;25;20058;-93
2022/09/02 20:03:36;;;;;;;7.15;1.48;;;19.50;34.20;;;;;;5675844;25;20058;-95
2022/09/02 20:06:04;;;;;;;3.33;1.80;;;19.50;34.10;;;;;;5695672;25;20050;-92
2022/09/02 20:08:31;;;;;;;5.22;2.00;;;19.50;34.30;;;;;;5694665;25;20104;-93
2022/09/02 20:10:59;;;;;;;3.67;1.50;;;19.50;34.30;;;;;;5675655;25;20050;-92
2022/09/02 20:13:27;;;;;;;3.17;1.70;;;19.40;34.50;;;;;;5671295;25;20054;-91
2022/09/02 20:15:54;;;;;;;6.25;1.83;;;19.40;34.80;;;;;;5683400;25;20065;-93
2022/09/02 20:18:23;;;;;;;2.08;1.52;;;19.40;34.80;;;;;;5683455;25;20058;-92
2022/09/02 20:20:53;;;;;;;5.28;1.88;;;19.40;34.80;;;;;;5660143;25;20065;-92
2022/09/02 20:23:23;;;;;;;6.57;2.00;;;19.40;34.90;;;;;;5681474;25;20050;-93
2022/09/02 20:25:58;;;;;;;6.50;1.88;;;19.30;35.00;;;;;;5658258;25;20065;-92
2022/09/02 20:28:46;;;;;;;8.80;2.00;;;19.30;35.50;;;;;;5676158;25;20072;-91
2022/09/02 20:31:51;;;;;;;5.65;2.50;;;19.30;35.40;;;;;;5660920;25;20050;-93
2022/09/02 20:35:03;;;;;;;5.65;3.22;;;19.30;35.90;;;;;;5698295;25;20054;-96
2022/09/02 20:38:00;;;;;;;10.38;5.57;;;19.20;36.20;;;;;;5574474;25;20064;-94
2022/09/02 20:40:45;;;;;;;12.30;7.18;;;19.20;36.50;;;;;;5595008;25;20187;-92
2022/09/02 20:43:16;;;;;;;14.15;7.80;;;19.20;36.90;;;;;;5699061;25;20058;-93
2022/09/02 20:45:46;;;;;;;15.57;8.40;;;19.20;37.30;;;;;;5655939;25;20054;-92
2022/09/02 20:48:31;;;;;;;17.83;9.55;;;19.20;37.50;;;;;;5675624;25;20050;-93
2022/09/02 20:51:19;;;;;;;23.73;10.80;;;19.10;37.70;;;;;;5659364;25;20054;-92
2022/09/02 20:54:03;;;;;;;17.80;10.20;;;19.10;37.70;;;;;;5663697;25;20064;-91
2022/09/02 20:56:57;;;;;;;22.75;9.40;;;19.00;37.80;;;;;;5677241;25;20119;-94
2022/09/02 21:00:08;;;;;;;17.65;10.30;;;19.00;38.30;;;;;;5705785;25;20050;-93
2022/09/02 21:02:46;;;;;;;16.95;10.25;;;18.90;38.30;;;;;;5689839;25;20474;-94
2022/09/02 21:05:25;;;;;;;18.30;10.40;;;18.90;38.20;;;;;;5658264;25;20104;-92
2022/09/02 21:08:00;;;;;;;15.70;9.98;;;18.80;38.60;;;;;;5669238;25;20098;-94
2022/09/02 21:10:51;;;;;;;18.27;11.43;;;18.70;38.70;;;;;;5689577;25;20050;-92
2022/09/02 21:13:32;;;;;;;25.70;13.05;;;18.70;39.00;;;;;;5657449;25;20054;-93
2022/09/02 21:15:59;;;;;;;24.50;12.68;;;18.60;39.00;;;;;;5657610;25;20051;-90
2022/09/02 21:19:09;;;;;;;22.08;14.35;;;18.60;39.00;;;;;;5681297;25;20416;-93
2022/09/02 21:22:09;;;;;;;27.98;15.52;;;18.50;39.20;;;;;;5691818;25;20054;-93
2022/09/02 21:24:50;;;;;;;29.20;16.20;;;18.40;39.20;;;;;;5704570;25;20042;-91
2022/09/02 21:27:34;;;;;;;30.48;16.13;;;18.40;39.20;;;;;;5681633;25;20042;-91
2022/09/02 21:30:05;;;;;;;25.13;16.13;;;18.30;39.40;;;;;;5680428;25;20057;-92
2022/09/02 21:32:51;;;;;;;30.00;17.02;;;18.20;39.60;;;;;;5682250;25;20097;-93
2022/09/02 21:35:44;;;;;;;27.80;17.48;;;18.20;39.90;;;;;;5702430;25;20050;-94
2022/09/02 21:38:19;;;;;;;27.45;17.70;;;18.10;40.00;;;;;;5663282;25;20097;-92
2022/09/02 21:41:08;;;;;;;32.78;18.35;;;18.00;39.80;;;;;;5684501;25;20046;-93
2022/09/02 21:43:57;;;;;;;29.73;17.95;;;18.00;41.50;;;;;;5680157;25;20505;-91
2022/09/02 21:47:00;;;;;;;30.63;18.10;;;17.90;40.20;;;;;;5683758;25;20064;-92
2022/09/02 21:49:48;;;;;;;31.08;19.58;;;17.90;40.50;;;;;;5679064;25;20068;-91
2022/09/02 21:52:31;;;;;;;31.38;18.20;;;17.90;40.70;;;;;;5688208;25;20474;-91
2022/09/02 21:55:02;;;;;;;33.17;19.25;;;17.80;40.60;;;;;;5682690;25;20126;-92
2022/09/02 21:58:07;;;;;;;32.10;18.92;;;17.80;40.60;;;;;;5655220;25;20062;-91
2022/09/02 22:00:33;;;;;;;32.22;19.13;;;17.70;40.90;;;;;;5631801;25;20062;-91
2022/09/02 22:03:11;;;;;;;;;;;17.70;40.80;;;;;;5658970;25;20466;-91
2022/09/02 22:05:52;;;;;;;38.22;19.20;;;17.70;40.90;;;;;;5636549;25;20016;-90
2022/09/02 22:08:43;;;;;;;37.25;19.55;;;17.60;40.80;;;;;;5661824;25;20054;-89
2022/09/02 22:11:35;;;;;;;31.35;19.17;;;17.60;41.10;;;;;;5654162;25;20058;-90
2022/09/02 22:14:15;;;;;;;28.20;18.25;;;17.60;41.40;;;;;;5654056;25;20077;-91
2022/09/02 22:16:57;;;;;;;24.80;15.18;;;17.50;41.30;;;;;;5659191;25;20066;-91
2022/09/02 22:19:28;;;;;;;27.60;15.57;;;17.50;41.30;;;;;;5644968;25;20069;-90
2022/09/02 22:22:04;;;;;;;25.13;13.43;;;17.50;41.30;;;;;;5649157;25;20054;-92
2022/09/02 22:24:33;;;;;;;21.73;12.57;;;17.40;41.20;;;;;;5655318;25;20054;-92
2022/09/02 22:27:05;;;;;;;20.95;12.95;;;17.40;41.10;;;;;;5678818;25;20069;-91
2022/09/02 22:29:52;;;;;;;18.48;11.00;;;17.40;41.00;;;;;;5659986;25;20069;-92
2022/09/02 22:32:21;;;;;;;17.85;10.85;;;17.40;40.70;;;;;;5642004;25;20058;-91
2022/09/02 22:35:03;;;;;;;14.82;9.90;;;17.40;40.80;;;;;;5658560;25;20466;-91
2022/09/02 22:37:38;;;;;;;17.75;9.85;;;17.40;40.80;;;;;;5660890;25;20517;-92
2022/09/02 22:40:06;;;;;;;16.48;8.98;;;17.40;40.40;;;;;;5683193;25;20046;-93
2022/09/02 22:42:43;;;;;;;14.60;9.60;;;17.40;40.30;;;;;;5658847;25;20069;-92
2022/09/02 22:55:00;;;;;;;17.00;10.07;;;17.30;40.10;;;;;;5685887;25;20062;-92
2022/09/02 22:57:32;;;;;;;;;;;17.30;39.90;;;;;;5640888;25;20053;-92
2022/09/02 23:00:02;;;;;;;17.48;10.40;;;17.20;39.80;;;;;;5685028;25;19957;-93
2022/09/02 23:02:36;;;;;;;14.43;9.55;;;17.20;39.70;;;;;;5660365;25;20169;-93
2022/09/02 23:08:08;;;;;;;16.58;10.80;;;17.20;41.30;;;;;;5670023;25;20076;-93
2022/09/02 23:10:56;;;;;;;18.65;11.15;;;17.20;40.00;;;;;;5665380;25;20073;-94
2022/09/02 23:13:35;;;;;;;17.10;10.50;;;17.10;39.90;;;;;;5686506;25;20389;-90
2022/09/02 23:16:35;;;;;;;15.77;10.05;;;17.10;40.00;;;;;;5689741;25;20050;-93
2022/09/02 23:19:20;;;;;;;16.30;10.75;;;17.00;40.30;;;;;;5689358;25;20062;-92
2022/09/02 23:22:07;;;;;;;20.38;10.70;;;17.00;40.40;;;;;;5692127;25;20117;-91
2022/09/02 23:24:52;;;;;;;16.52;11.15;;;16.90;40.30;;;;;;5679456;25;20054;-91
2022/09/02 23:27:21;;;;;;;18.88;11.73;;;16.90;40.20;;;;;;5723970;25;20053;-91
2022/09/02 23:29:53;;;;;;;22.58;11.68;;;16.90;40.30;;;;;;5722466;25;20060;-91
2022/09/02 23:32:38;;;;;;;20.75;11.90;;;16.80;40.30;;;;;;5720181;25;20057;-90
2022/09/02 23:35:16;;;;;;;17.85;11.98;;;16.80;40.50;;;;;;5684592;25;20088;-92
2022/09/02 23:37:58;;;;;;;22.70;12.27;;;16.80;40.60;;;;;;5657277;25;20164;-91
2022/09/02 23:40:42;;;;;;;21.08;12.15;;;16.80;40.50;;;;;;5677526;25;20093;-91
2022/09/02 23:43:09;;;;;;;17.65;12.23;;;16.80;40.60;;;;;;5677996;25;20105;-91
2022/09/02 23:45:35;;;;;;;20.42;12.30;;;16.80;40.60;;;;;;5656624;25;20551;-91
2022/09/02 23:48:46;;;;;;;21.98;12.80;;;16.70;40.90;;;;;;5656612;25;20064;-91
2022/09/02 23:51:23;;;;;;;20.90;11.85;;;16.70;40.90;;;;;;5653033;25;20062;-91
2022/09/02 23:53:53;;;;;;;20.42;12.75;;;16.70;40.90;;;;;;5677903;25;20066;-90
2022/09/02 23:56:32;;;;;;;23.48;12.88;;;16.60;40.80;;;;;;5693899;25;20058;-92
2022/09/02 23:59:17;;;;;;;18.08;11.93;;;16.60;41.20;;;;;;5702161;25;20134;-91
